Hakodate, Japan
Current Conditions -  °F | °C
As of 8:00 PM on Wednesday 22 Oct 2014 (Local Time) from RJCH Reporting Station
Clear Clear  
Wind Chill: 34°   Ceiling: Unl
Heat Index: 39°   Visibility: 6mi
Dew Point: 32°   Wind: 8mph
Humidity: 75%   Direction: 20°NNE
Pressure: 30.09"   Gusts: NA
Location:  41.8°N, 140.74°E
Report Text: RJCH 221100Z 02007KT CAVOK 04/M00 Q1019
Loading
Personal Weather Stations






























Interactive Weather Map
Tropical Storm Tracking
New forecast layout! Learn more

10-Day Weather Forecast

Advertisements
Track Severe Weather on mobile